createdAt,value
2018-12-15T00:00:01.016Z,2.78
2018-12-15T00:02:28.524Z,2.85
2018-12-15T00:04:56.004Z,3.01
2018-12-15T00:07:23.463Z,2.82
2018-12-15T00:09:50.942Z,2.85
2018-12-15T00:12:18.399Z,2.58
2018-12-15T00:14:46.023Z,2.48
2018-12-15T00:17:13.518Z,2.63
2018-12-15T00:19:40.979Z,2.70
2018-12-15T00:22:08.498Z,2.77
2018-12-15T00:24:36.975Z,2.84
2018-12-15T00:27:04.633Z,2.70
2018-12-15T00:29:32.129Z,2.57
2018-12-15T00:31:59.574Z,2.60
2018-12-15T00:34:27.048Z,2.63
2018-12-15T00:36:54.535Z,2.88
2018-12-15T00:39:22.034Z,3.02
2018-12-15T00:41:49.493Z,2.99
2018-12-15T00:44:16.992Z,3.02
2018-12-15T00:46:44.447Z,2.98
2018-12-15T00:49:11.923Z,3.01
2018-12-15T00:51:39.543Z,3.02
2018-12-15T00:54:07.004Z,2.98
2018-12-15T00:56:34.515Z,3.06
2018-12-15T00:59:02.002Z,3.18
2018-12-15T01:01:29.455Z,3.20
2018-12-15T01:03:56.969Z,3.29
2018-12-15T01:06:24.572Z,3.24
2018-12-15T01:08:52.040Z,3.00
2018-12-15T01:11:19.508Z,3.01
2018-12-15T01:13:46.988Z,2.95
2018-12-15T01:16:14.453Z,2.92
2018-12-15T01:18:41.934Z,2.80
2018-12-15T01:21:09.398Z,2.71
2018-12-15T01:23:36.843Z,2.76
2018-12-15T01:26:04.371Z,2.80
2018-12-15T01:28:31.840Z,2.85
2018-12-15T01:30:59.321Z,2.95
2018-12-15T01:33:26.809Z,2.91
2018-12-15T01:35:54.294Z,2.91
2018-12-15T01:38:21.754Z,2.93
2018-12-15T01:40:49.198Z,2.99
2018-12-15T01:43:16.760Z,3.01
2018-12-15T01:45:44.219Z,3.06
2018-12-15T01:48:11.698Z,3.00
2018-12-15T01:50:39.167Z,2.95
2018-12-15T01:53:06.671Z,2.97
2018-12-15T01:55:34.133Z,2.98
2018-12-15T01:58:01.575Z,3.22
2018-12-15T02:00:29.048Z,3.28
2018-12-15T02:02:57.064Z,3.16
2018-12-15T02:05:24.539Z,3.14
2018-12-15T02:07:52.010Z,2.97
2018-12-15T02:10:19.535Z,2.96
2018-12-15T02:12:46.990Z,2.98
2018-12-15T02:15:14.435Z,2.98
2018-12-15T02:17:41.919Z,2.86
2018-12-15T02:20:09.373Z,2.82
2018-12-15T02:22:36.850Z,2.91
2018-12-15T02:25:04.406Z,2.76
2018-12-15T02:27:31.874Z,2.70
2018-12-15T02:29:59.304Z,2.67
2018-12-15T02:32:27.435Z,2.72
2018-12-15T02:34:54.880Z,2.94
2018-12-15T02:37:22.448Z,2.97
2018-12-15T02:39:49.890Z,2.86
2018-12-15T02:42:17.324Z,2.84
2018-12-15T02:44:44.815Z,2.75
2018-12-15T02:47:12.283Z,2.68
2018-12-15T02:49:39.715Z,2.54
2018-12-15T02:52:07.181Z,2.37
2018-12-15T02:54:34.646Z,2.24
2018-12-15T02:57:02.123Z,2.36
2018-12-15T02:59:29.564Z,2.54
2018-12-15T03:01:57.960Z,2.54
2018-12-15T03:04:25.440Z,2.67
2018-12-15T03:06:52.966Z,2.71
2018-12-15T03:09:20.549Z,2.68
2018-12-15T03:11:47.989Z,2.78
2018-12-15T03:14:15.486Z,2.88
2018-12-15T03:19:41.045Z,2.61
2018-12-15T03:22:08.490Z,2.68
2018-12-15T03:24:35.993Z,2.59
2018-12-15T03:27:03.488Z,2.60
2018-12-15T03:29:30.988Z,2.56
2018-12-15T03:31:58.446Z,2.57
2018-12-15T03:34:25.890Z,2.59
2018-12-15T03:36:53.340Z,2.56
2018-12-15T03:39:21.018Z,2.69
2018-12-15T03:41:48.981Z,2.67
2018-12-15T03:44:16.504Z,2.82
2018-12-15T03:46:43.963Z,2.72
2018-12-15T03:49:11.396Z,2.92
2018-12-15T03:51:38.910Z,2.92
2018-12-15T03:54:06.343Z,2.95
2018-12-15T03:56:33.819Z,2.86
2018-12-15T03:59:01.296Z,2.90
2018-12-15T04:01:28.774Z,2.80
2018-12-15T04:03:56.209Z,2.66
2018-12-15T04:06:23.683Z,2.58
2018-12-15T04:08:51.118Z,2.48
2018-12-15T04:11:18.574Z,2.67
2018-12-15T04:13:46.055Z,2.70
2018-12-15T04:16:13.506Z,2.72
2018-12-15T04:18:40.961Z,2.55
2018-12-15T04:21:08.439Z,2.55
2018-12-15T04:23:35.890Z,2.77
2018-12-15T04:26:03.372Z,2.62
2018-12-15T04:28:30.814Z,2.69
2018-12-15T04:30:58.609Z,2.73
2018-12-15T04:33:26.099Z,2.74
2018-12-15T04:35:53.549Z,2.74
2018-12-15T04:38:21.010Z,2.60
2018-12-15T04:40:48.468Z,2.49
2018-12-15T04:43:15.946Z,2.60
2018-12-15T04:45:43.406Z,2.66
2018-12-15T04:48:11.540Z,2.68
2018-12-15T04:50:39.146Z,2.72
2018-12-15T04:53:06.596Z,2.71
2018-12-15T04:55:34.084Z,2.70
2018-12-15T04:58:01.767Z,2.96
2018-12-15T05:00:29.392Z,2.97
2018-12-15T05:02:56.980Z,2.91
2018-12-15T05:05:24.443Z,2.96
2018-12-15T05:07:51.968Z,2.97
2018-12-15T05:10:19.465Z,3.01
2018-12-15T05:12:46.918Z,2.88
2018-12-15T05:15:14.380Z,2.74
2018-12-15T05:17:41.820Z,2.63
2018-12-15T05:20:09.280Z,2.64
2018-12-15T05:22:36.794Z,2.69
2018-12-15T05:25:05.348Z,2.61
2018-12-15T05:27:32.834Z,2.68
2018-12-15T05:30:00.289Z,2.69
2018-12-15T05:32:27.776Z,2.76
2018-12-15T05:34:55.273Z,2.93
2018-12-15T05:37:22.714Z,2.94
2018-12-15T05:39:50.163Z,2.74
2018-12-15T05:42:17.607Z,2.72
2018-12-15T05:44:45.064Z,2.78
2018-12-15T05:47:12.543Z,2.85
2018-12-15T05:49:39.985Z,2.75
2018-12-15T05:52:07.446Z,2.66
2018-12-15T05:54:34.896Z,2.64
2018-12-15T05:57:02.384Z,2.60
2018-12-15T05:59:29.840Z,2.54
2018-12-15T06:01:57.758Z,2.53
2018-12-15T06:04:25.263Z,2.46
2018-12-15T06:06:52.844Z,2.60
2018-12-15T06:09:20.624Z,2.68
2018-12-15T06:11:48.057Z,2.73
2018-12-15T06:14:15.518Z,2.68
2018-12-15T06:16:42.979Z,2.63
2018-12-15T06:19:10.531Z,2.55
2018-12-15T06:21:37.999Z,2.58
2018-12-15T06:24:05.460Z,2.59
2018-12-15T06:26:32.964Z,2.63
2018-12-15T06:29:00.400Z,2.62
2018-12-15T06:31:27.950Z,2.62
2018-12-15T06:33:55.414Z,2.59
2018-12-15T06:36:22.901Z,2.57
2018-12-15T06:38:50.388Z,2.60
2018-12-15T06:41:17.850Z,2.70
2018-12-15T06:43:45.511Z,2.77
2018-12-15T06:46:13.083Z,2.66
2018-12-15T06:48:40.556Z,2.60
2018-12-15T06:51:08.049Z,2.67
2018-12-15T06:53:35.500Z,2.49
2018-12-15T06:56:02.965Z,2.47
2018-12-15T06:58:30.449Z,2.46
2018-12-15T07:00:57.923Z,2.36
2018-12-15T07:03:25.384Z,2.29
2018-12-15T07:05:52.871Z,2.35
2018-12-15T07:08:20.308Z,2.39
2018-12-15T07:10:47.791Z,2.54
2018-12-15T07:13:15.715Z,2.68
2018-12-15T07:15:43.220Z,2.89
2018-12-15T07:18:10.729Z,2.82
2018-12-15T07:20:38.198Z,2.83
2018-12-15T07:23:05.655Z,2.67
2018-12-15T07:25:33.249Z,2.60
2018-12-15T07:28:00.716Z,2.61
2018-12-15T07:30:28.517Z,2.57
2018-12-15T07:32:55.987Z,2.61
2018-12-15T07:35:23.457Z,2.57
2018-12-15T07:37:51.772Z,2.68
2018-12-15T07:40:19.265Z,2.69
2018-12-15T07:42:46.748Z,2.73
2018-12-15T07:45:14.189Z,2.69
2018-12-15T07:47:41.682Z,2.75
2018-12-15T07:50:09.130Z,2.93
2018-12-15T07:52:36.608Z,2.87
2018-12-15T07:55:04.534Z,2.73
2018-12-15T07:57:32.005Z,2.51
2018-12-15T07:59:59.495Z,2.53
2018-12-15T08:02:27.775Z,2.46
2018-12-15T08:04:55.237Z,2.50
2018-12-15T08:07:23.128Z,2.35
2018-12-15T08:09:51.075Z,2.24
2018-12-15T08:12:24.259Z,2.23
2018-12-15T08:14:51.732Z,2.41
2018-12-15T08:17:19.178Z,2.43
2018-12-15T08:19:46.658Z,2.39
2018-12-15T08:22:14.137Z,2.44
2018-12-15T08:24:41.600Z,2.69
2018-12-15T08:27:09.090Z,2.86
2018-12-15T08:29:36.550Z,2.74
2018-12-15T08:32:04.132Z,2.70
2018-12-15T08:34:31.585Z,2.69
2018-12-15T08:36:59.074Z,2.76
2018-12-15T08:39:26.543Z,2.69
2018-12-15T08:41:53.996Z,2.57
2018-12-15T08:44:21.449Z,2.63
2018-12-15T08:46:48.909Z,2.53
2018-12-15T08:49:16.384Z,2.52
2018-12-15T08:51:43.906Z,2.62
2018-12-15T08:54:11.407Z,2.70
2018-12-15T08:56:38.896Z,2.73
2018-12-15T08:59:06.363Z,2.81
2018-12-15T09:01:33.813Z,2.92
2018-12-15T09:04:01.347Z,2.81
2018-12-15T09:06:28.800Z,2.78
2018-12-15T09:08:56.287Z,2.80
2018-12-15T09:11:23.762Z,2.90
2018-12-15T09:13:51.232Z,2.76
2018-12-15T09:16:18.693Z,2.75
2018-12-15T09:18:46.184Z,2.77
2018-12-15T09:21:14.617Z,2.69
2018-12-15T09:23:42.123Z,2.67
2018-12-15T09:26:09.557Z,2.55
2018-12-15T09:28:37.687Z,2.52
2018-12-15T09:31:05.270Z,2.57
2018-12-15T09:33:32.742Z,2.71
2018-12-15T09:36:00.225Z,2.88
2018-12-15T09:38:28.082Z,2.79
2018-12-15T09:40:56.550Z,2.67
2018-12-15T09:43:24.121Z,2.63
2018-12-15T09:45:51.577Z,2.67
2018-12-15T09:48:19.066Z,2.61
2018-12-15T09:50:46.523Z,2.70
2018-12-15T09:53:14.022Z,2.81
2018-12-15T09:55:41.503Z,2.72
2018-12-15T09:58:08.988Z,2.74
2018-12-15T10:00:36.435Z,2.69
2018-12-15T10:03:03.925Z,2.81
2018-12-15T10:05:31.852Z,2.82
2018-12-15T10:07:59.309Z,2.77
2018-12-15T10:10:26.755Z,2.76
2018-12-15T10:12:54.275Z,2.89
2018-12-15T10:15:21.740Z,2.72
2018-12-15T10:17:49.236Z,2.70
2018-12-15T10:20:16.701Z,2.72
2018-12-15T10:22:44.149Z,2.74
2018-12-15T10:25:11.609Z,2.75
2018-12-15T10:27:39.065Z,2.84
2018-12-15T10:30:12.466Z,2.92
2018-12-15T10:32:45.658Z,2.95
2018-12-15T10:35:15.479Z,2.97
2018-12-15T10:37:42.949Z,2.94
2018-12-15T10:40:10.431Z,2.84
2018-12-15T10:42:37.889Z,2.88
2018-12-15T10:45:05.770Z,2.94
2018-12-15T10:47:33.227Z,2.94
2018-12-15T10:50:00.725Z,2.88
2018-12-15T10:52:28.187Z,2.96
2018-12-15T10:54:55.658Z,2.81
2018-12-15T10:57:23.093Z,2.80
2018-12-15T10:59:51.135Z,2.86
2018-12-15T11:02:18.638Z,2.78
2018-12-15T11:04:46.138Z,2.83
2018-12-15T11:07:13.812Z,2.80
2018-12-15T11:09:41.272Z,2.74
2018-12-15T11:12:08.808Z,2.67
2018-12-15T11:14:36.328Z,2.66
2018-12-15T11:17:03.790Z,2.76
2018-12-15T11:19:37.034Z,2.89
2018-12-15T11:22:00.747Z,2.91
2018-12-15T11:24:28.230Z,2.89
2018-12-15T11:26:55.736Z,2.84
2018-12-15T11:29:23.177Z,2.76
2018-12-15T11:31:50.661Z,2.84
2018-12-15T11:34:18.150Z,2.92
2018-12-15T11:36:45.642Z,2.86
2018-12-15T11:39:13.136Z,2.73
2018-12-15T11:41:40.598Z,2.65
2018-12-15T11:44:08.170Z,2.71
2018-12-15T11:46:35.756Z,2.76
2018-12-15T11:49:03.497Z,2.82
2018-12-15T11:51:30.962Z,2.99
2018-12-15T11:53:58.431Z,3.03
2018-12-15T11:56:25.881Z,2.97
2018-12-15T11:58:53.931Z,2.93
2018-12-15T12:01:21.506Z,2.76
2018-12-15T12:03:48.988Z,2.70
2018-12-15T12:06:16.418Z,2.73
2018-12-15T12:08:43.944Z,2.69
2018-12-15T12:11:11.401Z,2.71
2018-12-15T12:13:38.870Z,2.70
2018-12-15T12:16:06.333Z,2.74
2018-12-15T12:18:33.928Z,2.86
2018-12-15T12:21:01.399Z,2.72
2018-12-15T12:23:28.871Z,2.79
2018-12-15T12:25:56.365Z,3.00
2018-12-15T12:28:23.838Z,3.00
2018-12-15T12:30:51.282Z,3.12
2018-12-15T12:33:18.785Z,3.02
2018-12-15T12:35:46.225Z,2.96
2018-12-15T12:38:13.679Z,2.75
2018-12-15T12:40:41.123Z,2.62
2018-12-15T12:43:08.663Z,2.53
2018-12-15T12:45:36.238Z,2.55
2018-12-15T12:48:03.893Z,2.63
2018-12-15T12:50:32.432Z,2.67
2018-12-15T12:53:00.071Z,2.69
2018-12-15T12:55:27.541Z,2.55
2018-12-15T12:57:54.998Z,2.63
2018-12-15T13:00:22.485Z,2.77
2018-12-15T13:02:49.986Z,2.53
2018-12-15T13:05:17.476Z,2.40
2018-12-15T13:07:44.912Z,2.56
2018-12-15T13:10:12.415Z,2.71
2018-12-15T13:12:39.866Z,2.68
2018-12-15T13:15:07.591Z,2.48
2018-12-15T13:17:35.047Z,2.46
2018-12-15T13:20:03.852Z,2.57
2018-12-15T13:22:31.537Z,2.72
2018-12-15T13:24:58.980Z,2.76
2018-12-15T13:27:26.466Z,2.77
2018-12-15T13:29:53.917Z,2.78
2018-12-15T13:32:21.403Z,2.93
2018-12-15T13:34:48.848Z,3.17
2018-12-15T13:37:16.427Z,3.22
2018-12-15T13:39:43.941Z,3.13
2018-12-15T13:42:11.525Z,3.06
2018-12-15T13:44:39.015Z,2.99
2018-12-15T13:47:06.608Z,3.06
2018-12-15T13:49:34.163Z,2.98
2018-12-15T13:52:01.746Z,2.85
2018-12-15T13:54:29.225Z,2.82
2018-12-15T13:56:56.695Z,2.67
2018-12-15T13:59:24.147Z,2.81
2018-12-15T14:01:51.642Z,2.66
2018-12-15T14:04:19.126Z,2.70
2018-12-15T14:06:46.717Z,2.91
2018-12-15T14:09:14.175Z,2.98
2018-12-15T14:11:41.637Z,2.89
2018-12-15T14:14:09.096Z,2.84
2018-12-15T14:16:36.575Z,2.91
2018-12-15T14:19:04.523Z,3.00
2018-12-15T14:21:31.996Z,3.05
2018-12-15T14:23:59.498Z,3.06
2018-12-15T14:26:26.962Z,2.98
2018-12-15T14:28:54.477Z,2.92
2018-12-15T14:31:21.947Z,2.94
2018-12-15T14:33:49.470Z,2.81
2018-12-15T14:36:17.003Z,2.71
2018-12-15T14:38:44.520Z,2.81
2018-12-15T14:41:11.975Z,3.01
2018-12-15T14:43:39.472Z,2.93
2018-12-15T14:46:06.962Z,2.82
2018-12-15T14:48:34.716Z,2.76
2018-12-15T14:51:02.182Z,2.71
2018-12-15T14:53:29.641Z,2.69
2018-12-15T14:55:57.147Z,2.64
2018-12-15T14:58:24.610Z,2.53
2018-12-15T15:00:52.125Z,2.50
2018-12-15T15:03:19.590Z,2.51
2018-12-15T15:05:47.097Z,2.36
2018-12-15T15:08:14.615Z,2.43
2018-12-15T15:10:42.070Z,2.35
2018-12-15T15:13:09.540Z,2.49
2018-12-15T15:15:37.003Z,2.45
2018-12-15T15:18:04.972Z,2.34
2018-12-15T15:20:32.572Z,2.36
2018-12-15T15:23:00.086Z,2.37
2018-12-15T15:25:27.532Z,2.37
2018-12-15T15:27:55.140Z,2.36
2018-12-15T15:30:22.631Z,2.28
2018-12-15T15:32:50.203Z,2.28
2018-12-15T15:35:17.710Z,2.32
2018-12-15T15:37:45.186Z,2.37
2018-12-15T15:40:12.646Z,2.30
2018-12-15T15:42:40.106Z,2.22
2018-12-15T15:45:07.727Z,2.16
2018-12-15T15:47:35.270Z,2.19
2018-12-15T15:50:02.765Z,2.26
2018-12-15T15:52:30.252Z,2.24
2018-12-15T15:54:57.739Z,2.27
2018-12-15T15:57:25.196Z,2.25
2018-12-15T15:59:52.679Z,2.12
2018-12-15T16:02:20.142Z,2.10
2018-12-15T16:04:47.637Z,2.13
2018-12-15T16:07:15.291Z,1.95
2018-12-15T16:09:45.102Z,2.00
2018-12-15T16:12:12.298Z,1.79
2018-12-15T16:14:39.815Z,1.71
2018-12-15T16:17:07.267Z,1.61
2018-12-15T16:19:34.792Z,1.70
2018-12-15T16:22:02.262Z,1.91
2018-12-15T16:24:29.754Z,1.93
2018-12-15T16:26:57.229Z,1.82
2018-12-15T16:29:24.699Z,1.76
2018-12-15T16:31:52.190Z,1.74
2018-12-15T16:34:19.705Z,1.66
2018-12-15T16:36:47.157Z,1.75
2018-12-15T16:39:14.645Z,1.71
2018-12-15T16:41:42.497Z,1.71
2018-12-15T16:44:10.195Z,1.63
2018-12-15T16:46:37.700Z,1.61
2018-12-15T16:49:06.312Z,1.57
2018-12-15T16:51:33.802Z,1.69
2018-12-15T16:54:01.264Z,1.78
2018-12-15T16:56:28.770Z,1.94
2018-12-15T16:58:56.221Z,1.83
2018-12-15T17:01:23.745Z,1.89
2018-12-15T17:03:51.206Z,1.88
2018-12-15T17:06:18.676Z,1.90
2018-12-15T17:08:46.290Z,1.87
2018-12-15T17:11:13.736Z,1.88
2018-12-15T17:13:41.192Z,1.88
2018-12-15T17:16:08.689Z,1.83
2018-12-15T17:18:36.576Z,1.69
2018-12-15T17:21:04.126Z,1.66
2018-12-15T17:23:31.711Z,1.68
2018-12-15T17:25:59.151Z,1.62
2018-12-15T17:28:27.004Z,1.78
2018-12-15T17:30:54.462Z,1.88
2018-12-15T17:33:21.955Z,1.93
2018-12-15T17:35:49.393Z,1.77
2018-12-15T17:38:16.879Z,1.64
2018-12-15T17:40:44.376Z,1.54
2018-12-15T17:43:11.835Z,1.49
2018-12-15T17:45:39.293Z,1.50
2018-12-15T17:48:07.029Z,1.43
2018-12-15T17:50:34.473Z,1.31
2018-12-15T17:53:02.053Z,1.17
2018-12-15T17:55:29.518Z,1.07
2018-12-15T17:57:57.003Z,0.96
2018-12-15T18:00:24.450Z,1.15
2018-12-15T18:02:51.957Z,1.21
2018-12-15T18:05:19.689Z,1.32
2018-12-15T18:07:47.166Z,1.32
2018-12-15T18:10:15.726Z,1.12
2018-12-15T18:12:43.222Z,1.02
2018-12-15T18:15:10.810Z,0.99
2018-12-15T18:17:38.313Z,0.93
2018-12-15T18:20:07.386Z,0.94
2018-12-15T18:22:34.874Z,0.77
2018-12-15T18:25:02.354Z,0.62
2018-12-15T18:27:29.841Z,0.50
2018-12-15T18:29:57.401Z,0.69
2018-12-15T18:32:24.897Z,0.87
2018-12-15T18:34:52.444Z,0.86
2018-12-15T18:37:19.916Z,0.97
2018-12-15T18:39:47.418Z,1.20
2018-12-15T18:42:14.875Z,1.23
2018-12-15T18:44:42.498Z,1.15
2018-12-15T18:47:09.945Z,1.13
2018-12-15T18:49:37.612Z,0.99
2018-12-15T18:52:05.062Z,0.91
2018-12-15T18:54:32.562Z,0.81
2018-12-15T18:57:00.192Z,0.68
2018-12-15T18:59:27.867Z,0.74
2018-12-15T19:01:55.364Z,0.81
2018-12-15T19:04:22.823Z,0.82
2018-12-15T19:06:50.301Z,0.81
2018-12-15T19:09:17.814Z,0.78
2018-12-15T19:11:45.270Z,0.86
2018-12-15T19:14:12.751Z,1.09
2018-12-15T19:16:40.211Z,1.13
2018-12-15T19:19:07.857Z,0.98
2018-12-15T19:21:35.460Z,0.99
2018-12-15T19:24:03.050Z,0.97
2018-12-15T19:26:30.503Z,0.75
2018-12-15T19:28:57.956Z,0.58
2018-12-15T19:31:25.644Z,0.55
2018-12-15T19:33:53.200Z,0.64
2018-12-15T19:36:20.675Z,0.58
2018-12-15T19:38:48.174Z,0.63
2018-12-15T19:41:15.615Z,0.68
2018-12-15T19:43:43.135Z,0.83
2018-12-15T19:46:10.585Z,0.99
2018-12-15T19:48:38.125Z,1.13
2018-12-15T19:51:05.645Z,1.15
2018-12-15T19:53:33.104Z,0.95
2018-12-15T19:56:00.624Z,0.91
2018-12-15T19:58:28.139Z,0.79
2018-12-15T20:00:55.579Z,0.64
2018-12-15T20:03:23.116Z,0.69
2018-12-15T20:05:50.566Z,0.54
2018-12-15T20:08:18.070Z,0.48
2018-12-15T20:10:45.550Z,0.57
2018-12-15T20:13:13.017Z,0.49
2018-12-15T20:15:40.550Z,0.54
2018-12-15T20:18:08.340Z,0.56
2018-12-15T20:20:35.818Z,0.69
2018-12-15T20:23:03.295Z,1.03
2018-12-15T20:25:30.829Z,1.11
2018-12-15T20:27:58.280Z,1.02
2018-12-15T20:30:25.761Z,0.86
2018-12-15T20:32:53.245Z,0.62
2018-12-15T20:35:20.858Z,0.52
2018-12-15T20:37:48.313Z,0.44
2018-12-15T20:40:15.764Z,0.47
2018-12-15T20:42:43.269Z,0.41
2018-12-15T20:45:10.762Z,0.44
2018-12-15T20:47:38.670Z,0.43
2018-12-15T20:50:06.574Z,0.32
2018-12-15T20:52:34.341Z,0.42
2018-12-15T20:55:01.804Z,0.64
2018-12-15T20:57:29.272Z,0.74
2018-12-15T20:59:56.764Z,0.77
2018-12-15T21:02:24.268Z,0.78
2018-12-15T21:04:51.721Z,0.76
2018-12-15T21:07:19.218Z,0.79
2018-12-15T21:09:46.661Z,0.80
2018-12-15T21:12:14.265Z,0.68
2018-12-15T21:14:41.744Z,0.67
2018-12-15T21:17:09.211Z,0.61
2018-12-15T21:19:36.710Z,0.60
2018-12-15T21:22:08.231Z,0.56
2018-12-15T21:24:35.697Z,0.53
2018-12-15T21:27:03.646Z,0.50
2018-12-15T21:29:31.136Z,0.50
2018-12-15T21:31:58.600Z,0.65
2018-12-15T21:34:26.102Z,0.85
2018-12-15T21:36:54.114Z,0.92
2018-12-15T21:39:21.597Z,0.94
2018-12-15T21:41:49.049Z,0.79
2018-12-15T21:44:16.535Z,0.52
2018-12-15T21:46:44.003Z,0.49
2018-12-15T21:49:11.526Z,0.59
2018-12-15T21:51:39.334Z,0.70
2018-12-15T21:54:06.842Z,0.74
2018-12-15T21:56:34.322Z,0.70
2018-12-15T21:59:01.820Z,0.73
2018-12-15T22:01:29.331Z,0.69
2018-12-15T22:03:56.778Z,0.68
2018-12-15T22:06:24.248Z,0.94
2018-12-15T22:08:51.771Z,1.27
2018-12-15T22:11:19.294Z,1.22
2018-12-15T22:13:46.756Z,1.11
2018-12-15T22:16:14.229Z,1.11
2018-12-15T22:18:41.698Z,1.00
2018-12-15T22:21:09.607Z,0.97
2018-12-15T22:23:37.089Z,0.89
2018-12-15T22:26:04.569Z,0.85
2018-12-15T22:28:32.061Z,0.81
2018-12-15T22:30:59.514Z,0.89
2018-12-15T22:33:26.985Z,0.93
2018-12-15T22:35:54.445Z,0.92
2018-12-15T22:38:21.919Z,0.87
2018-12-15T22:40:49.388Z,0.89
2018-12-15T22:43:16.854Z,1.20
2018-12-15T22:45:44.348Z,1.32
2018-12-15T22:48:11.814Z,1.32
2018-12-15T22:50:39.875Z,1.20
2018-12-15T22:53:07.336Z,1.13
2018-12-15T22:55:34.789Z,1.12
2018-12-15T22:58:02.279Z,1.01
2018-12-15T23:00:31.898Z,1.00
2018-12-15T23:02:59.345Z,1.02
2018-12-15T23:05:26.785Z,0.90
2018-12-15T23:07:54.271Z,1.10
2018-12-15T23:10:21.718Z,1.21
2018-12-15T23:12:49.220Z,1.19
2018-12-15T23:15:16.664Z,1.28
2018-12-15T23:17:44.157Z,1.46
2018-12-15T23:20:11.630Z,1.57
2018-12-15T23:22:39.114Z,1.48
2018-12-15T23:25:06.692Z,1.38
2018-12-15T23:27:34.159Z,1.46
2018-12-15T23:30:01.654Z,1.46
2018-12-15T23:32:29.139Z,1.31
2018-12-15T23:34:56.597Z,1.33
2018-12-15T23:37:24.079Z,1.37
2018-12-15T23:39:51.516Z,1.38
2018-12-15T23:42:18.972Z,1.29
2018-12-15T23:44:46.519Z,1.29
2018-12-15T23:47:14.004Z,1.28
2018-12-15T23:49:41.443Z,1.36
2018-12-15T23:52:08.957Z,1.54
2018-12-15T23:54:36.526Z,1.85
2018-12-15T23:57:04.366Z,1.79
2018-12-15T23:59:31.872Z,1.65
